Time;durP1;ratioP1;P1;durP2;ratioP2;P2;SDS_P1;SDS_P2;PMS_P1;PMS_P2;Temp;Humidity;BMP_temperature;BMP_pressure;BME280_temperature;BME280_humidity;BME280_pressure;Samples;Min_cycle;Max_cycle;Signal;HPM_P1;HPM_P2
2022/08/26 00:01:15;;;;;;;29.55;6.38;;;;;;;22.76;56.85;94866.97;5019493;28;20037;-85
2022/08/26 00:03:41;;;;;;;29.15;6.05;;;;;;;22.94;56.61;94897.81;5018191;28;20048;-86
2022/08/26 00:06:07;;;;;;;31.30;5.90;;;;;;;22.53;57.12;94845.25;5018545;28;20428;-86
2022/08/26 00:08:33;;;;;;;26.42;5.35;;;;;;;22.58;56.80;94846.91;5018997;28;20049;-85
2022/08/26 00:11:00;;;;;;;26.77;4.97;;;;;;;22.91;56.64;94893.13;5020801;28;20088;-86
2022/08/26 00:13:26;;;;;;;33.20;5.85;;;;;;;22.35;56.54;94808.25;5018885;28;20512;-85
2022/08/26 00:15:52;;;;;;;30.65;5.93;;;;;;;22.68;57.06;94874.13;5018950;28;20033;-86
2022/08/26 00:18:18;;;;;;;22.27;5.88;;;;;;;22.00;57.23;94784.78;5018913;28;20045;-86
2022/08/26 00:20:44;;;;;;;23.60;5.63;;;;;;;22.59;57.06;94860.03;5020020;28;20052;-86
2022/08/26 00:23:09;;;;;;;22.35;4.88;;;;;;;22.12;56.81;94783.88;5019308;28;20037;-85
2022/08/26 00:25:36;;;;;;;32.22;5.32;;;;;;;22.74;57.42;94888.16;5019111;28;20068;-85
2022/08/26 00:28:01;;;;;;;30.30;6.22;;;;;;;22.11;57.12;94785.78;5017979;28;20488;-85
2022/08/26 00:30:29;;;;;;;29.90;6.65;;;;;;;22.59;57.38;94878.97;5017964;28;20072;-86
2022/08/26 00:32:56;;;;;;;26.85;5.57;;;;;;;22.53;57.69;94880.38;5019696;28;20169;-85
2022/08/26 00:35:22;;;;;;;39.58;6.88;;;;;;;22.08;57.88;94808.09;5018194;28;20515;-85
2022/08/26 00:37:48;;;;;;;32.67;6.25;;;;;;;22.11;58.12;94809.31;5018021;28;20488;-85
2022/08/26 00:40:18;;;;;;;32.58;6.30;;;;;;;22.71;57.84;94894.25;5018197;28;20349;-86
2022/08/26 00:42:43;;;;;;;25.23;5.18;;;;;;;21.84;57.89;94765.13;5019575;28;20045;-86
2022/08/26 00:45:09;;;;;;;31.52;6.60;;;;;;;22.84;57.51;94886.78;5018604;28;20401;-86
2022/08/26 00:47:37;;;;;;;36.58;6.53;;;;;;;22.58;58.30;94885.50;5017836;28;20076;-85
2022/08/26 00:50:09;;;;;;;27.45;6.32;;;;;;;22.30;58.64;94864.09;5020020;28;20056;-85
2022/08/26 00:52:36;;;;;;;24.92;5.88;;;;;;;21.75;58.42;94762.63;5017932;28;20120;-85
2022/08/26 00:55:08;;;;;;;26.02;6.45;;;;;;;21.47;58.28;94726.97;5017728;28;20136;-86
2022/08/26 00:57:35;;;;;;;28.48;6.25;;;;;;;22.26;57.97;94879.47;5017857;28;20440;-85
2022/08/26 01:00:08;;;;;;;26.35;6.03;;;;;;;22.30;59.40;94893.81;5018348;28;20699;-86
2022/08/26 01:02:34;;;;;;;26.23;5.93;;;;;;;21.32;58.86;94742.06;5017931;28;20041;-85
2022/08/26 01:05:02;;;;;;;33.22;5.30;;;;;;;21.72;58.76;94844.31;5019495;28;20056;-85
2022/08/26 01:07:31;;;;;;;23.13;6.13;;;;;;;21.47;59.00;94783.63;5017729;28;20512;-85
2022/08/26 01:09:58;;;;;;;31.73;5.13;;;;;;;21.24;58.32;94724.16;5018031;28;20304;-86
2022/08/26 01:12:27;;;;;;;32.85;6.43;;;;;;;21.97;58.46;94819.81;5018281;28;20039;-86
2022/08/26 01:14:54;;;;;;;38.38;6.95;;;;;;;22.27;57.79;94861.34;5018100;28;20136;-85
2022/08/26 01:17:19;;;;;;;33.70;5.72;;;;;;;22.30;58.17;94869.50;5017637;28;20416;-85
2022/08/26 01:19:50;;;;;;;26.20;5.43;;;;;;;21.26;59.27;94783.13;5018731;28;20384;-86
2022/08/26 01:22:29;;;;;;;25.65;6.07;;;;;;;21.95;59.29;94874.91;5019485;28;20033;-85
2022/08/26 01:24:58;;;;;;;34.72;6.03;;;;;;;19.70;59.20;94501.91;5017444;28;20139;-85
2022/08/26 01:27:29;;;;;;;32.30;6.78;;;;;;;21.71;60.61;94888.63;5017654;28;20034;-86
2022/08/26 01:29:59;;;;;;;27.77;5.80;;;;;;;21.61;60.10;94846.00;5017251;28;20424;-85
2022/08/26 01:32:26;;;;;;;30.90;6.00;;;;;;;21.71;60.63;94831.97;5017700;28;20123;-85
2022/08/26 01:34:52;;;;;;;27.15;6.30;;;;;;;21.81;59.68;94823.31;5018626;28;20505;-86
2022/08/26 01:37:21;;;;;;;31.08;5.78;;;;;;;21.90;58.54;94852.78;5019428;28;20508;-85
2022/08/26 01:39:50;;;;;;;24.73;5.20;;;;;;;21.77;58.70;94848.66;5018788;28;20683;-85
2022/08/26 01:42:18;;;;;;;36.97;6.35;;;;;;;21.85;58.96;94856.56;5017241;28;20531;-85
2022/08/26 01:44:59;;;;;;;37.13;6.00;;;;;;;21.35;58.13;94773.72;5017264;28;20037;-85
2022/08/26 01:47:28;;;;;;;23.85;5.68;;;;;;;22.03;57.64;94861.59;5017927;28;20120;-86
2022/08/26 01:49:55;;;;;;;35.72;5.75;;;;;;;21.87;57.90;94857.00;5017423;28;20049;-86
2022/08/26 01:52:25;;;;;;;33.67;5.28;;;;;;;22.09;58.34;94887.19;5016103;28;20041;-85
2022/08/26 01:54:54;;;;;;;28.90;5.40;;;;;;;21.95;58.25;94845.22;5018628;28;20041;-86
2022/08/26 01:57:22;;;;;;;17.55;5.07;;;;;;;22.13;58.56;94866.44;5016263;28;20583;-85
2022/08/26 01:59:49;;;;;;;40.08;5.95;;;;;;;22.14;59.39;94881.50;5016465;28;20586;-85
2022/08/26 02:02:15;;;;;;;26.73;5.90;;;;;;;22.33;58.90;94870.72;5015616;28;20026;-85
2022/08/26 02:04:58;;;;;;;38.65;6.22;;;;;;;22.45;57.79;94873.28;5016773;28;20041;-86
2022/08/26 02:07:25;;;;;;;21.77;5.68;;;;;;;22.18;57.79;94833.75;5016821;28;20534;-85
2022/08/26 02:09:51;;;;;;;31.23;6.03;;;;;;;22.18;58.23;94839.94;5017652;28;20045;-85
2022/08/26 02:12:18;;;;;;;37.50;6.90;;;;;;;22.57;57.97;94872.38;5017654;28;20407;-85
2022/08/26 02:14:49;;;;;;;36.22;7.22;;;;;;;22.43;57.91;94872.09;5020204;28;20068;-85
2022/08/26 02:17:16;;;;;;;28.90;5.80;;;;;;;22.35;58.15;94870.38;5020511;28;20033;-85
2022/08/26 02:19:47;;;;;;;33.00;5.97;;;;;;;22.25;58.44;94867.09;5020079;28;20147;-85
2022/08/26 02:22:18;;;;;;;32.33;6.13;;;;;;;21.61;58.15;94756.16;5021083;28;20057;-86
2022/08/26 02:24:45;;;;;;;30.98;6.05;;;;;;;22.45;58.22;94872.50;5021846;28;20041;-85
2022/08/26 02:27:12;;;;;;;26.40;6.65;;;;;;;22.49;58.27;94871.44;5020012;28;20500;-85
2022/08/26 02:29:43;;;;;;;22.05;5.75;;;;;;;21.84;58.17;94765.91;5019620;28;20103;-85
2022/08/26 02:32:10;;;;;;;22.60;5.75;;;;;;;22.51;58.13;94868.34;5019852;28;20041;-85
2022/08/26 02:34:36;;;;;;;27.05;5.72;;;;;;;22.44;58.18;94869.00;5020714;28;20037;-86
2022/08/26 02:37:08;;;;;;;27.98;6.15;;;;;;;22.05;58.01;94803.38;5020079;28;20041;-85
2022/08/26 02:39:35;;;;;;;20.08;5.70;;;;;;;22.49;58.34;94871.44;5019660;28;20034;-85
2022/08/26 02:42:02;;;;;;;26.52;5.70;;;;;;;22.05;58.52;94814.19;5020045;28;20038;-85
2022/08/26 02:44:28;;;;;;;31.10;6.10;;;;;;;21.77;58.29;94754.97;5021998;28;20042;-85
2022/08/26 02:46:53;;;;;;;36.85;7.13;;;;;;;21.84;58.24;94786.72;5019201;28;20041;-85
2022/08/26 02:49:20;;;;;;;37.80;6.65;;;;;;;22.37;58.73;94871.56;5019483;28;20071;-86
2022/08/26 02:51:48;;;;;;;27.58;6.05;;;;;;;22.13;58.32;94842.13;5019464;28;20037;-85
2022/08/26 02:54:15;;;;;;;37.35;5.60;;;;;;;21.35;58.08;94719.00;5020819;28;20030;-85
2022/08/26 02:56:41;;;;;;;46.33;6.43;;;;;;;21.88;57.65;94820.00;5019645;28;20332;-86
2022/08/26 02:59:06;;;;;;;40.85;6.90;;;;;;;22.18;57.82;94852.66;5019983;28;20033;-85
2022/08/26 03:01:34;;;;;;;38.00;6.53;;;;;;;21.55;58.38;94771.84;5019716;28;20591;-85
2022/08/26 03:04:01;;;;;;;33.30;6.00;;;;;;;21.70;58.35;94799.91;5021544;28;20124;-85
2022/08/26 03:06:27;;;;;;;30.83;7.03;;;;;;;21.94;58.08;94813.97;5019601;28;20115;-85
2022/08/26 03:08:54;;;;;;;38.70;6.38;;;;;;;21.27;58.37;94747.72;5019968;28;20045;-85
2022/08/26 03:11:21;;;;;;;28.88;5.93;;;;;;;22.19;58.01;94852.31;5020228;28;20037;-85
2022/08/26 03:13:46;;;;;;;37.45;6.10;;;;;;;22.33;58.06;94866.09;5019462;28;20132;-85
2022/08/26 03:16:12;;;;;;;38.92;6.32;;;;;;;22.48;58.24;94877.19;5019422;28;20844;-85
2022/08/26 03:18:39;;;;;;;35.15;6.55;;;;;;;21.74;58.57;94798.84;5019795;28;20033;-85
2022/08/26 03:21:09;;;;;;;41.20;7.35;;;;;;;21.74;58.39;94828.53;5020683;28;20033;-85
2022/08/26 03:23:37;;;;;;;33.92;5.95;;;;;;;21.36;58.37;94793.41;5018426;28;20118;-85
2022/08/26 03:26:03;;;;;;;33.80;6.30;;;;;;;21.81;57.63;94830.63;5019427;28;20572;-85
2022/08/26 03:28:29;;;;;;;28.50;6.25;;;;;;;21.50;58.32;94772.13;5019384;28;20044;-85
2022/08/26 03:30:56;;;;;;;35.88;6.32;;;;;;;21.88;58.33;94814.59;5020598;28;20037;-85
2022/08/26 03:33:23;;;;;;;36.72;6.72;;;;;;;21.84;58.26;94863.09;5019307;28;20103;-86
2022/08/26 03:35:49;;;;;;;36.47;6.13;;;;;;;21.50;58.09;94818.78;5018722;28;20072;-85
2022/08/26 03:38:14;;;;;;;36.72;6.53;;;;;;;21.33;57.80;94805.66;5018714;28;20150;-85
2022/08/26 03:40:42;;;;;;;39.47;6.47;;;;;;;21.30;57.76;94817.13;5020573;28;20069;-85
2022/08/26 03:43:08;;;;;;;29.20;5.97;;;;;;;21.76;57.51;94874.88;5019303;28;20037;-86
2022/08/26 03:45:35;;;;;;;31.65;6.50;;;;;;;21.64;57.89;94876.91;5018766;28;20646;-85
2022/08/26 03:48:02;;;;;;;31.95;6.22;;;;;;;20.85;57.98;94763.66;5019269;28;20052;-85
2022/08/26 03:50:28;;;;;;;36.22;5.97;;;;;;;21.24;58.47;94807.75;5018761;28;20033;-85
2022/08/26 03:52:54;;;;;;;37.08;6.20;;;;;;;20.83;59.10;94730.09;5018940;28;20029;-85
2022/08/26 03:55:23;;;;;;;35.13;6.10;;;;;;;21.68;59.14;94877.75;5018553;28;20029;-84
2022/08/26 03:57:48;;;;;;;41.08;6.80;;;;;;;21.28;58.84;94807.84;5018174;28;20224;-85
2022/08/26 04:00:15;;;;;;;25.70;6.15;;;;;;;20.77;59.00;94761.91;5016866;28;20504;-85
2022/08/26 04:02:44;;;;;;;36.38;6.63;;;;;;;20.75;58.71;94774.97;5017362;28;20124;-86
2022/08/26 04:05:12;;;;;;;37.50;6.10;;;;;;;20.79;58.74;94776.59;5017288;28;20041;-85
2022/08/26 04:07:39;;;;;;;42.95;6.63;;;;;;;21.64;58.17;94874.19;5019012;28;20088;-85
2022/08/26 04:10:05;;;;;;;33.85;6.45;;;;;;;20.88;58.00;94775.66;5018507;28;20123;-85
2022/08/26 04:12:31;;;;;;;53.90;7.25;;;;;;;21.34;57.64;94841.50;5018054;28;20037;-85
2022/08/26 04:14:57;;;;;;;33.92;5.88;;;;;;;21.12;57.68;94797.03;5013401;28;20472;-85
2022/08/26 04:17:24;;;;;;;35.63;6.22;;;;;;;20.62;57.01;94741.91;5011969;28;20049;-85
2022/08/26 04:19:52;;;;;;;37.30;6.80;;;;;;;21.32;57.55;94833.75;5011939;28;20044;-85
2022/08/26 04:22:18;;;;;;;29.25;6.82;;;;;;;20.60;57.86;94743.38;5008657;28;20040;-86
2022/08/26 04:24:44;;;;;;;37.83;6.82;;;;;;;21.58;57.74;94859.41;5017896;28;20041;-85
2022/08/26 04:27:09;;;;;;;37.08;6.07;;;;;;;21.06;57.15;94788.41;5017630;28;20145;-85
2022/08/26 04:29:35;;;;;;;40.58;6.70;;;;;;;21.70;56.82;94870.09;5013121;28;20036;-85
2022/08/26 04:32:01;;;;;;;49.67;6.93;;;;;;;20.82;56.89;94732.03;5016826;28;20537;-85
2022/08/26 04:34:27;;;;;;;41.85;7.47;;;;;;;21.72;56.53;94857.81;5014552;28;20026;-85
2022/08/26 04:36:53;;;;;;;35.38;6.60;;;;;;;21.49;55.99;94811.81;5002870;28;20045;-85
2022/08/26 04:39:19;;;;;;;48.40;6.68;;;;;;;21.11;55.89;94741.56;5018459;28;20037;-85
2022/08/26 04:41:46;;;;;;;46.67;7.22;;;;;;;21.41;55.70;94795.81;5009974;28;20037;-84
2022/08/26 04:44:13;;;;;;;39.70;6.38;;;;;;;21.92;55.65;94874.81;5014433;28;20130;-85
2022/08/26 04:46:39;;;;;;;36.47;6.30;;;;;;;21.85;56.16;94871.97;5034839;28;20037;-85
2022/08/26 04:49:07;;;;;;;39.72;7.47;;;;;;;21.68;55.30;94837.25;5032468;28;20036;-86
2022/08/26 04:51:36;;;;;;;44.72;7.40;;;;;;;22.02;54.97;94876.22;5018089;28;20561;-85
2022/08/26 04:54:05;;;;;;;43.25;6.50;;;;;;;21.45;54.87;94802.84;5014927;28;20112;-85
2022/08/26 04:56:36;;;;;;;37.20;7.03;;;;;;;21.42;54.84;94794.69;5010611;28;20034;-85
2022/08/26 04:59:05;;;;;;;38.13;6.78;;;;;;;21.23;54.82;94748.78;5032829;28;20575;-85
2022/08/26 05:01:31;;;;;;;41.03;8.35;;;;;;;22.18;54.63;94874.28;5009181;28;20061;-85
2022/08/26 05:03:57;;;;;;;29.50;6.45;;;;;;;21.96;54.64;94870.31;5014294;28;20179;-85
2022/08/26 05:06:23;;;;;;;35.45;6.68;;;;;;;22.09;54.43;94876.38;5016075;28;20496;-85
2022/08/26 05:08:48;;;;;;;44.80;6.72;;;;;;;21.51;54.56;94808.78;5008993;28;20123;-85
2022/08/26 05:11:14;;;;;;;42.30;7.25;;;;;;;20.52;54.55;94675.06;5017103;28;20114;-85
2022/08/26 05:13:40;;;;;;;31.20;7.43;;;;;;;21.21;54.80;94783.41;5018022;28;20034;-85
2022/08/26 05:16:09;;;;;;;27.25;6.22;;;;;;;21.29;54.40;94771.63;5017998;28;20423;-85
2022/08/26 05:18:37;;;;;;;51.47;7.47;;;;;;;21.84;55.02;94882.00;5018068;28;20037;-85
2022/08/26 05:21:03;;;;;;;37.03;7.05;;;;;;;21.29;54.59;94764.31;5015481;28;20041;-85
2022/08/26 05:23:30;;;;;;;39.53;6.95;;;;;;;21.21;54.56;94776.06;5016702;28;20044;-85
2022/08/26 05:25:57;;;;;;;33.70;6.70;;;;;;;21.67;54.61;94843.78;5017709;28;20061;-85
2022/08/26 05:28:23;;;;;;;34.40;7.10;;;;;;;21.99;54.77;94864.22;5016134;28;20047;-85
2022/08/26 05:30:50;;;;;;;43.08;7.13;;;;;;;22.22;54.75;94897.50;5016741;28;20063;-85
2022/08/26 05:33:16;;;;;;;48.40;7.53;;;;;;;21.66;54.93;94840.34;5016915;28;20034;-86
2022/08/26 05:35:43;;;;;;;37.80;6.60;;;;;;;21.94;55.10;94880.66;5012213;28;20491;-85
2022/08/26 05:38:11;;;;;;;43.63;8.18;;;;;;;22.15;54.71;94859.53;4996627;28;20626;-85
2022/08/26 05:40:41;;;;;;;39.65;7.32;;;;;;;22.37;54.51;94895.88;5006702;28;20041;-85
2022/08/26 05:43:09;;;;;;;41.42;6.80;;;;;;;21.82;54.29;94799.78;5015912;28;20845;-85
2022/08/26 05:45:39;;;;;;;35.45;7.70;;;;;;;22.33;53.85;94890.41;5016456;28;20033;-85
2022/08/26 05:48:08;;;;;;;37.90;7.55;;;;;;;22.29;54.41;94897.66;5006305;28;20034;-85
2022/08/26 05:50:43;;;;;;;33.78;7.18;;;;;;;21.86;54.18;94822.25;5020015;28;20037;-85
2022/08/26 05:53:11;;;;;;;45.67;7.03;;;;;;;21.71;54.07;94788.00;5020864;28;20033;-85
2022/08/26 05:55:45;;;;;;;28.42;6.38;;;;;;;21.90;54.00;94801.50;5021514;28;20033;-85
2022/08/26 05:58:11;;;;;;;26.67;6.70;;;;;;;22.70;53.89;94895.41;5020352;28;20030;-85
2022/08/26 06:00:38;;;;;;;43.80;7.45;;;;;;;22.73;53.70;94896.63;5019171;28;20098;-85
2022/08/26 06:03:03;;;;;;;46.50;8.02;;;;;;;22.61;53.22;94848.88;5019142;28;20419;-85
2022/08/26 06:05:29;;;;;;;26.70;6.60;;;;;;;22.68;53.25;94884.94;5014401;28;20037;-85
2022/08/26 06:08:10;;;;;;;32.70;7.60;;;;;;;22.64;52.87;94856.28;5017805;28;20110;-85
2022/08/26 06:10:45;;;;;;;39.80;7.93;;;;;;;22.84;53.10;94874.06;5021025;28;20087;-85
2022/08/26 06:13:11;;;;;;;31.15;7.15;;;;;;;22.80;53.22;94857.00;5019940;28;20095;-85
2022/08/26 06:15:45;;;;;;;36.20;7.00;;;;;;;23.13;52.88;94918.63;5022073;28;20045;-86
2022/08/26 06:18:13;;;;;;;29.92;7.65;;;;;;;23.13;52.42;94879.97;5036459;28;20034;-85
2022/08/26 06:20:42;;;;;;;46.67;10.30;;;;;;;23.25;52.92;94904.94;5019850;28;20368;-85
2022/08/26 06:25:55;;;;;;;35.20;7.65;;;;;;;22.75;53.26;94880.81;5022426;28;20092;-85
2022/08/26 06:28:21;;;;;;;36.22;7.20;;;;;;;22.07;53.49;94776.81;5037023;28;20033;-85
2022/08/26 06:30:47;;;;;;;38.53;8.05;;;;;;;22.82;52.83;94856.63;5035507;28;20161;-85
2022/08/26 06:33:13;;;;;;;36.65;7.18;;;;;;;22.84;53.34;94870.56;5018496;28;20422;-85
2022/08/26 06:35:40;;;;;;;34.10;6.97;;;;;;;22.86;52.89;94871.78;5021120;28;20060;-85
2022/08/26 06:38:08;;;;;;;38.33;7.30;;;;;;;22.68;52.71;94846.31;5035942;28;20555;-85
2022/08/26 06:40:41;;;;;;;45.67;8.52;;;;;;;23.12;52.84;94905.44;5020416;28;20506;-85
2022/08/26 06:43:07;;;;;;;35.38;7.35;;;;;;;21.78;52.72;94690.97;5017054;28;20033;-85
2022/08/26 06:45:33;;;;;;;37.20;7.72;;;;;;;22.44;52.10;94781.75;5013033;28;20492;-85
2022/08/26 06:47:59;;;;;;;43.97;7.78;;;;;;;23.20;52.18;94890.91;5003681;28;20512;-85
2022/08/26 06:50:24;;;;;;;44.30;7.03;;;;;;;22.95;51.12;94839.91;5015527;28;20029;-84
2022/08/26 06:52:51;;;;;;;33.75;6.38;;;;;;;22.87;51.66;94791.47;5021728;28;20510;-85
2022/08/26 06:55:17;;;;;;;33.88;7.95;;;;;;;23.16;51.41;94842.19;5020114;28;20446;-85
2022/08/26 06:57:42;;;;;;;37.28;7.47;;;;;;;23.09;51.60;94845.53;5019012;28;20033;-85
2022/08/26 07:00:10;;;;;;;40.22;6.82;;;;;;;22.82;51.09;94795.22;5019212;28;20423;-85
2022/08/26 07:02:36;;;;;;;38.33;7.35;;;;;;;23.66;50.87;94899.81;5018824;28;20467;-85
2022/08/26 07:05:03;;;;;;;48.22;7.85;;;;;;;23.72;50.93;94906.53;5018860;28;20134;-85
2022/08/26 07:07:29;;;;;;;36.00;7.07;;;;;;;23.75;50.29;94886.81;5020099;28;20540;-85
2022/08/26 07:09:54;;;;;;;29.80;6.45;;;;;;;22.73;49.87;94724.41;5019816;28;20088;-85
2022/08/26 07:12:20;;;;;;;32.13;7.38;;;;;;;23.41;49.90;94818.22;5014906;28;20104;-85
2022/08/26 07:14:46;;;;;;;29.90;7.72;;;;;;;24.00;49.87;94900.75;5000561;28;20040;-85
2022/08/26 07:17:12;;;;;;;41.45;7.85;;;;;;;23.83;49.97;94859.50;4998178;28;20037;-85
2022/08/26 07:19:37;;;;;;;40.60;6.90;;;;;;;23.67;49.44;94817.47;4999144;28;20038;-85
2022/08/26 07:22:05;;;;;;;37.40;6.97;;;;;;;24.38;49.80;94916.78;4999144;28;20116;-85
2022/08/26 07:24:37;;;;;;;24.50;6.60;;;;;;;24.49;49.31;94920.41;5015176;28;20037;-85
2022/08/26 07:27:06;;;;;;;35.85;7.43;;;;;;;24.30;49.53;94900.78;5035525;28;20042;-84
2022/08/26 07:29:32;;;;;;;35.55;7.15;;;;;;;24.28;48.96;94887.59;5020010;28;20559;-85
2022/08/26 07:31:58;;;;;;;30.55;7.40;;;;;;;24.12;49.10;94870.72;5018089;28;20411;-85
2022/08/26 07:34:24;;;;;;;34.25;7.40;;;;;;;23.95;49.47;94815.19;5018749;28;20060;-86
2022/08/26 07:36:50;;;;;;;27.45;7.47;;;;;;;24.76;48.79;94920.34;5017053;28;20145;-85
2022/08/26 07:39:17;;;;;;;37.67;6.07;;;;;;;24.13;48.59;94870.34;5020507;28;20506;-85
2022/08/26 07:41:45;;;;;;;40.33;7.00;;;;;;;24.52;48.93;94927.81;5020130;28;20411;-85
2022/08/26 07:44:12;;;;;;;38.38;7.20;;;;;;;22.64;48.89;94629.25;5013803;28;20064;-85
2022/08/26 07:46:39;;;;;;;30.35;6.82;;;;;;;24.52;48.75;94889.84;4998048;28;20046;-84
2022/08/26 07:49:05;;;;;;;32.60;7.65;;;;;;;24.30;48.34;94828.41;5014593;28;20073;-84
2022/08/26 07:51:31;;;;;;;40.92;8.13;;;;;;;23.87;48.68;94775.59;5014729;28;20599;-84
2022/08/26 07:53:57;;;;;;;38.35;7.63;;;;;;;24.60;47.98;94858.97;5014465;28;20105;-84
2022/08/26 07:56:23;;;;;;;32.03;6.88;;;;;;;24.28;47.97;94789.28;5014627;28;20040;-85
2022/08/26 07:58:50;;;;;;;43.85;8.75;;;;;;;24.53;47.72;94803.88;5027052;28;20049;-85
2022/08/26 08:01:15;;;;;;;26.92;7.65;;;;;;;24.82;47.56;94837.50;5028411;28;20564;-85
2022/08/26 08:03:41;;;;;;;38.75;7.68;;;;;;;24.80;48.90;94818.88;5032065;28;20110;-85
2022/08/26 08:06:07;;;;;;;36.15;8.48;;;;;;;25.66;49.28;94932.56;5016114;28;20117;-85
2022/08/26 08:08:34;;;;;;;42.67;8.82;;;;;;;25.33;48.70;94872.91;5018106;28;20052;-85
2022/08/26 08:11:01;;;;;;;34.55;7.50;;;;;;;25.48;48.24;94881.97;5007534;28;20044;-86
2022/08/26 08:13:27;;;;;;;36.25;7.07;;;;;;;23.35;47.57;94571.53;5019741;28;20488;-84
2022/08/26 08:15:53;;;;;;;27.67;7.43;;;;;;;25.54;47.31;94919.25;5018460;28;20640;-85
2022/08/26 08:18:19;;;;;;;39.00;7.20;;;;;;;25.44;47.01;94881.13;5014676;28;20064;-85
2022/08/26 08:20:45;;;;;;;40.63;8.25;;;;;;;25.43;46.73;94845.06;5034063;28;20488;-85
2022/08/26 08:23:10;;;;;;;40.33;7.43;;;;;;;25.74;47.09;94912.47;5018127;28;20360;-85
2022/08/26 08:25:36;;;;;;;35.35;7.80;;;;;;;24.96;46.84;94819.47;5018099;28;20496;-85
2022/08/26 08:28:01;;;;;;;40.88;7.20;;;;;;;25.68;46.70;94891.47;5019237;28;20474;-85
2022/08/26 08:30:27;;;;;;;49.58;7.43;;;;;;;25.68;46.79;94880.59;5018904;28;20041;-84
2022/08/26 08:32:53;;;;;;;32.97;6.60;;;;;;;26.09;46.39;94922.03;5017977;28;20039;-85
2022/08/26 08:35:22;;;;;;;38.42;7.20;;;;;;;25.78;45.55;94879.13;5019593;28;20496;-85
2022/08/26 08:37:52;;;;;;;42.50;7.65;;;;;;;25.28;45.79;94814.31;5019014;28;20071;-85
2022/08/26 08:40:20;;;;;;;35.53;6.53;;;;;;;24.04;45.20;94623.34;5029410;28;20515;-85
2022/08/26 08:42:53;;;;;;;36.63;6.95;;;;;;;25.41;45.40;94833.78;5015502;28;20545;-85
2022/08/26 08:45:29;;;;;;;35.45;6.45;;;;;;;24.51;45.31;94712.09;5017048;28;20084;-85
2022/08/26 08:47:57;;;;;;;45.38;6.82;;;;;;;25.01;45.41;94828.44;4998892;28;20026;-85
2022/08/26 08:50:28;;;;;;;25.23;6.15;;;;;;;25.37;45.47;94881.88;4997934;28;20520;-85
2022/08/26 08:53:12;;;;;;;27.00;6.65;;;;;;;24.03;45.79;94703.03;5016209;28;20401;-85
2022/08/26 08:56:15;;;;;;;42.40;7.78;;;;;;;25.63;45.48;94900.72;5019052;28;20042;-85
2022/08/26 08:58:59;;;;;;;30.42;6.50;;;;;;;25.47;46.23;94902.13;5009899;28;20155;-85
2022/08/26 09:01:49;;;;;;;40.42;6.97;;;;;;;25.91;45.14;94897.44;5019058;28;20072;-84
2022/08/26 09:04:37;;;;;;;25.65;6.32;;;;;;;26.15;44.15;94893.34;5020411;28;20568;-85
2022/08/26 09:07:07;;;;;;;36.33;6.22;;;;;;;25.95;44.08;94835.75;5018367;28;20522;-85
2022/08/26 09:10:19;;;;;;;36.70;6.57;;;;;;;26.40;42.78;94885.31;5017720;28;20533;-85
2022/08/26 09:12:44;;;;;;;32.80;7.57;;;;;;;26.47;43.04;94853.50;5006618;28;20112;-85
2022/08/26 09:15:29;;;;;;;34.75;7.30;;;;;;;26.88;42.69;94888.63;5001983;28;20044;-85
2022/08/26 09:18:13;;;;;;;42.45;7.78;;;;;;;26.87;42.68;94889.78;4997382;28;20555;-85
2022/08/26 09:20:59;;;;;;;42.85;6.95;;;;;;;27.14;42.38;94893.03;5006916;28;20064;-85
2022/08/26 09:23:25;;;;;;;33.45;6.57;;;;;;;27.22;42.79;94884.47;5016880;28;20464;-84
2022/08/26 09:25:59;;;;;;;26.90;5.32;;;;;;;26.63;40.90;94800.72;5017989;28;20561;-85
2022/08/26 09:28:27;;;;;;;21.88;5.30;;;;;;;26.90;39.68;94823.75;5012486;28;20814;-85
2022/08/26 09:31:09;;;;;;;33.75;5.60;;;;;;;27.32;37.24;94871.25;4998090;28;20073;-86
2022/08/26 09:33:34;;;;;;;22.83;5.00;;;;;;;26.82;33.40;94803.91;5031261;28;20033;-85
2022/08/26 09:36:14;;;;;;;21.17;5.43;;;;;;;27.51;33.47;94860.78;5015921;28;20582;-85
2022/08/26 09:38:40;;;;;;;31.50;6.65;;;;;;;27.38;33.47;94872.44;5012666;28;20542;-85
2022/08/26 09:41:31;;;;;;;20.98;5.38;;;;;;;27.59;34.03;94875.19;5016119;28;20096;-85
2022/08/26 09:44:11;;;;;;;33.15;5.93;;;;;;;27.74;33.58;94876.75;5017152;28;20396;-85
2022/08/26 09:46:41;;;;;;;31.55;6.32;;;;;;;27.40;33.43;94810.97;5016218;28;20494;-85
2022/08/26 09:49:35;;;;;;;19.50;5.95;;;;;;;27.52;32.58;94790.75;5015771;28;20522;-85
2022/08/26 09:52:17;;;;;;;26.45;6.15;;;;;;;28.22;32.90;94870.88;5016602;28;20083;-85
2022/08/26 09:54:44;;;;;;;24.48;5.43;;;;;;;28.37;33.76;94856.03;5016155;28;20033;-85
2022/08/26 09:57:12;;;;;;;24.08;5.38;;;;;;;28.70;34.56;94869.13;5015532;28;20135;-85
2022/08/26 09:59:38;;;;;;;17.95;5.85;;;;;;;29.09;32.72;94846.34;5016776;28;20037;-85
2022/08/26 10:02:22;;;;;;;22.23;6.00;;;;;;;29.93;29.70;94877.75;5015440;28;20103;-85
2022/08/26 10:04:56;;;;;;;18.15;5.47;;;;;;;30.24;28.63;94806.72;5017668;28;20037;-85
2022/08/26 10:07:42;;;;;;;17.98;5.43;;;;;;;31.63;27.62;94872.19;5016991;28;20516;-85
2022/08/26 10:10:23;;;;;;;20.38;5.32;;;;;;;32.37;28.21;94859.16;5019741;28;20064;-86
2022/08/26 10:13:13;;;;;;;21.75;4.80;;;;;;;32.62;27.43;94844.94;5016019;28;20033;-86
2022/08/26 10:15:49;;;;;;;20.88;4.80;;;;;;;33.27;25.26;94842.41;5015844;28;20044;-85
2022/08/26 10:18:27;;;;;;;22.85;4.93;;;;;;;33.69;25.21;94791.16;5017011;28;20494;-85
2022/08/26 10:21:08;;;;;;;25.77;5.85;;;;;;;34.45;24.91;94814.31;5016011;28;20068;-85
2022/08/26 10:23:38;;;;;;;;;;;;;;;34.99;22.90;94851.38;5016812;28;20064;-85
2022/08/26 10:27:01;;;;;;;24.17;6.43;;;;;;;35.56;21.70;94851.19;5017384;28;20288;-85
2022/08/26 10:29:34;;;;;;;18.02;5.68;;;;;;;35.88;21.37;94861.19;5021263;28;20057;-85
2022/08/26 10:32:09;;;;;;;23.90;5.75;;;;;;;35.98;20.92;94810.41;4998602;28;20038;-86
2022/08/26 10:34:34;;;;;;;16.13;5.85;;;;;;;36.16;20.28;94798.00;4997162;28;20077;-85
2022/08/26 10:37:09;;;;;;;29.48;7.50;;;;;;;36.57;21.75;94819.78;5010426;28;20124;-86
2022/08/26 10:39:38;;;;;;;17.30;6.35;;;;;;;36.01;19.73;94788.66;5019234;28;20038;-85
2022/08/26 10:42:12;;;;;;;17.45;5.93;;;;;;;35.90;19.98;94742.91;5017899;28;20586;-85
2022/08/26 10:44:41;;;;;;;30.90;5.88;;;;;;;36.76;20.69;94842.06;5001189;28;20041;-86
2022/08/26 10:47:45;;;;;;;18.65;5.35;;;;;;;36.82;19.81;94824.44;5022890;28;20037;-85
2022/08/26 10:50:11;;;;;;;22.30;5.60;;;;;;;36.05;20.07;94753.44;4995613;28;20052;-85
2022/08/26 10:52:50;;;;;;;27.75;6.78;;;;;;;36.41;21.62;94778.56;5008922;28;20098;-85
2022/08/26 10:55:32;;;;;;;32.90;7.60;;;;;;;36.29;20.73;94840.91;5021573;28;20079;-85
2022/08/26 10:57:57;;;;;;;24.45;7.05;;;;;;;36.01;21.00;94841.84;5019513;28;20037;-85
2022/08/26 11:03:48;;;;;;;27.67;7.22;;;;;;;35.63;22.74;94832.88;5006587;28;20095;-85
2022/08/26 11:06:24;;;;;;;23.25;7.03;;;;;;;35.13;22.46;94832.41;5020657;28;20508;-85
2022/08/26 11:08:59;;;;;;;18.15;6.65;;;;;;;35.44;21.61;94843.69;5019067;28;20444;-85
2022/08/26 11:11:40;;;;;;;14.05;6.90;;;;;;;35.47;21.80;94836.53;5019872;28;20040;-84
2022/08/26 11:14:07;;;;;;;18.00;6.38;;;;;;;34.90;21.86;94807.94;5020285;28;20073;-85
2022/08/26 11:16:39;;;;;;;21.75;6.78;;;;;;;35.14;21.26;94836.72;5021420;28;20452;-85
2022/08/26 11:19:08;;;;;;;25.00;6.50;;;;;;;34.32;22.30;94796.22;5019534;28;20064;-85
2022/08/26 11:22:04;;;;;;;49.97;11.05;;;;;;;34.61;21.70;94826.47;5018874;28;20121;-84
2022/08/26 11:24:51;;;;;;;19.77;6.65;;;;;;;34.23;21.74;94823.59;5019265;28;20239;-86
2022/08/26 11:27:35;;;;;;;22.92;6.43;;;;;;;34.75;21.53;94817.81;5018838;28;20045;-85
2022/08/26 11:30:09;;;;;;;21.33;6.28;;;;;;;34.76;22.42;94822.91;5019631;28;20492;-85
2022/08/26 11:32:38;;;;;;;32.05;7.82;;;;;;;34.92;19.28;94819.28;5018949;28;20423;-85
2022/08/26 11:35:17;;;;;;;19.17;6.43;;;;;;;35.19;20.74;94827.91;5019320;28;20163;-85
2022/08/26 11:38:00;;;;;;;30.85;7.38;;;;;;;35.26;18.73;94815.13;5019255;28;20415;-85
2022/08/26 11:40:34;;;;;;;20.38;6.35;;;;;;;33.59;18.96;94520.00;5019094;28;20098;-85
2022/08/26 11:43:06;;;;;;;20.95;7.18;;;;;;;35.18;18.53;94771.22;5018576;28;20847;-85